Impacts TAF Board
For situational awareness. Not to be used for flight planning purposes.
IDs:

KMSY - New Orleans/Armstron, LA, US

Issued at 1129 UTC 17 Nov 2019
Updated at 1609 UTC 17 Nov 2019
Potential Impact None Slight Moderate High
Time1553Z 17/17Z 17/18Z 17/19Z 17/20Z 17/21Z 17/22Z 17/23Z 18/00Z 18/01Z 18/02Z 18/03Z 18/04Z 18/05Z>>
Type OBS PRVL PRVL PRVL PRVL PRVL PRVL PRVL PRVL PRVL PRVL PRVL PRVL PRVL
VIS 10 >6 >6 >6 >6 >6 >6 >6 >6 >6 >6 >6 >6 >6
CIG 250 250 250 250 -- -- -- -- -- -- -- -- -- --
Cover BKN BKN BKN BKN FEW FEW FEW FEW FEW FEW FEW FEW FEW FEW
FltCat VFR VFR VFR VFR VFR VFR VFR VFR VFR VFR VFR VFR VFR VFR
WX -- -- -- -- -- -- -- -- -- -- -- -- -- --
WDir VRB VRB VRB VRB VRB VRB VRB VRB VRB VRB VRB VRB VRB VRB
WSpd 0 4 4 4 4 4 4 4 4 4 4 4 4 4
WGst -- -- -- -- -- -- -- -- -- -- -- -- -- --
R01/19
XWnd VRB VRB VRB VRB VRB VRB VRB VRB VRB VRB VRB VRB VRB VRB
HWnd VRB VRB VRB VRB VRB VRB VRB VRB VRB VRB VRB VRB VRB VRB
R10/28
XWnd VRB VRB VRB VRB VRB VRB VRB VRB VRB VRB VRB VRB VRB VRB
HWnd VRB VRB VRB VRB VRB VRB VRB VRB VRB VRB VRB VRB VRB VRB
Raw TAF
KMSY 171129Z 1712/1818 VRB04KT P6SM SCT150 BKN250
  FM172000 VRB04KT P6SM FEW250


Raw METAR
KMSY 171553Z 00000KT 10SM BKN250 14/06 A3010 RMK AO2 SLP194 T01390061
KMSY 171453Z VRB03KT 10SM BKN250 13/07 A3009 RMK AO2 SLP193 T01280067 51013
KMSY 171353Z 00000KT 9SM BKN250 11/08 A3009 RMK AO2 SLP192 T01110078

METAR Board
Radar Display
Forecast Discussion
For situational awareness. Not to be used for flight planning purposes.